Iberia, Ohio
Current Conditions -  °F | °C
As of 12:53 PM on Thursday 25 Dec 2014 (Local Time) from KMNN Reporting Station
Overcast Overcast  
Wind Chill: 29°   Ceiling: 2800
Heat Index: 38°   Visibility: 10mi
Dew Point: 28°   Wind: 16mph
Humidity: 68%   Direction: 240°WSW
Pressure: 30.05"   Gusts: 22mph
Location:  40.67°N, 82.84°W
Report Text: KMNN 251753Z AUTO 24014G19KT 10SM OVC028 03/M02 A3005 RMK AO2 SLP184 60000 T00331022 10033 20022 51009 TSNO
Loading
Personal Weather Stations






























Interactive Weather Map New forecast layout! Learn more

10-Day Weather Forecast

Advertisements
Track Severe Weather on mobile